Groom Creek, Arizona
Current Conditions -  °F | °C
As of 4:53 AM on Thursday 29 Jan 2015 (Local Time) from KPRC Reporting Station
Broken Clouds Broken Clouds  
Wind Chill: 38°   Ceiling: 12000
Heat Index: 41°   Visibility: 10mi
Dew Point: 31°   Wind: 5mph
Humidity: 67%   Direction: 200°SSW
Pressure: 30.2"   Gusts: NA
Location:  34.5368°N, 112.512°W
Report Text: KPRC 291153Z AUTO 20004KT 10SM BKN120 05/M01 A3020 RMK AO2 SLP188 T00501006 10078 20044 58003
Loading
Personal Weather Stations






























Interactive Weather Map New forecast layout! Learn more

10-Day Weather Forecast

Advertisements
Track Severe Weather on mobile